Time;durP1;ratioP1;P1;durP2;ratioP2;P2;SDS_P1;SDS_P2;PMS_P1;PMS_P2;Temp;Humidity;BMP_temperature;BMP_pressure;BME280_temperature;BME280_humidity;BME280_pressure;Samples;Min_cycle;Max_cycle;Signal;HPM_P1;HPM_P2
2022/04/28 00:00:44;;;;;;;6.30;4.30;;;10.20;99.90;;;;;;5074965;28;20531;-83
2022/04/28 00:03:11;;;;;;;6.80;3.80;;;10.20;99.90;;;;;;5076987;28;20179;-84
2022/04/28 00:05:37;;;;;;;8.80;4.97;;;10.20;99.90;;;;;;5076760;28;20179;-83
2022/04/28 00:08:04;;;;;;;5.40;3.90;;;10.10;99.90;;;;;;5074800;28;20504;-83
2022/04/28 00:10:30;;;;;;;6.37;4.47;;;10.10;99.90;;;;;;5074463;28;20522;-83
2022/04/28 00:12:56;;;;;;;5.40;3.87;;;10.00;99.90;;;;;;5074897;28;20462;-84
2022/04/28 00:15:22;;;;;;;7.40;3.90;;;9.90;99.90;;;;;;5074873;28;20187;-84
2022/04/28 00:17:48;;;;;;;5.47;3.63;;;9.90;99.90;;;;;;5076792;28;20454;-84
2022/04/28 00:20:13;;;;;;;7.17;3.87;;;10.00;99.90;;;;;;5076542;28;20195;-83
2022/04/28 00:22:39;;;;;;;5.00;3.80;;;9.90;99.90;;;;;;5074791;28;20186;-83
2022/04/28 00:25:05;;;;;;;6.83;4.30;;;10.00;99.90;;;;;;5076615;28;20228;-84
2022/04/28 00:27:31;;;;;;;8.13;4.60;;;10.00;99.90;;;;;;5076280;28;20181;-82
2022/04/28 00:29:57;;;;;;;6.17;4.63;;;10.00;99.90;;;;;;5074777;28;20446;-83
2022/04/28 00:32:22;;;;;;;6.40;4.50;;;9.90;99.90;;;;;;5075803;28;20820;-83
2022/04/28 00:34:48;;;;;;;6.50;3.93;;;9.90;99.90;;;;;;5074572;28;20268;-83
2022/04/28 00:37:15;;;;;;;7.27;3.87;;;9.90;99.90;;;;;;5074507;28;20178;-83
2022/04/28 00:39:41;;;;;;;5.10;3.40;;;9.90;99.90;;;;;;5075648;28;20171;-84
2022/04/28 00:42:12;;;;;;;8.27;4.50;;;9.80;99.90;;;;;;5074026;28;20435;-83
2022/04/28 00:44:37;;;;;;;6.93;4.10;;;9.70;99.90;;;;;;5075521;28;20439;-82
2022/04/28 00:47:04;;;;;;;6.03;4.00;;;9.70;99.90;;;;;;5074124;28;20824;-83
2022/04/28 00:52:13;;;;;;;6.43;4.10;;;9.70;99.90;;;;;;5075383;28;20463;-84
2022/04/28 00:54:39;;;;;;;5.27;3.77;;;9.60;99.90;;;;;;5075454;28;20497;-83
2022/04/28 00:57:05;;;;;;;5.50;3.60;;;9.60;99.90;;;;;;5073840;28;20173;-83
2022/04/28 00:59:30;;;;;;;4.53;3.60;;;9.60;99.90;;;;;;5073896;28;20564;-84
2022/04/28 01:01:56;;;;;;;7.53;4.47;;;9.50;99.90;;;;;;5073793;28;20274;-83
2022/04/28 01:04:22;;;;;;;7.00;3.93;;;9.50;99.90;;;;;;5074696;28;20179;-82
2022/04/28 01:06:47;;;;;;;5.63;3.53;;;9.50;99.90;;;;;;5073364;28;20528;-84
2022/04/28 01:09:14;;;;;;;5.83;3.93;;;9.50;99.90;;;;;;5072187;28;20194;-84
2022/04/28 01:11:41;;;;;;;7.00;4.17;;;9.40;99.90;;;;;;5074167;28;20202;-84
2022/04/28 01:14:06;;;;;;;6.97;3.73;;;9.40;99.90;;;;;;5073083;28;20417;-82
2022/04/28 01:16:32;;;;;;;7.77;4.20;;;9.40;99.90;;;;;;5072955;28;20499;-83
2022/04/28 01:18:59;;;;;;;7.43;4.43;;;9.40;99.90;;;;;;5073618;28;20277;-83
2022/04/28 01:21:25;;;;;;;7.80;4.80;;;9.30;99.90;;;;;;5072605;28;20191;-83
2022/04/28 01:23:51;;;;;;;5.80;4.13;;;9.40;99.90;;;;;;5072942;28;20533;-82
2022/04/28 01:26:17;;;;;;;6.40;4.30;;;9.30;99.90;;;;;;5072677;28;20436;-82
2022/04/28 01:28:42;;;;;;;6.97;4.70;;;9.30;99.90;;;;;;5073932;28;20413;-84
2022/04/28 01:31:08;;;;;;;4.77;3.93;;;9.30;99.90;;;;;;5072551;28;20198;-83
2022/04/28 01:33:34;;;;;;;6.23;4.23;;;9.20;99.90;;;;;;5074886;28;20657;-83
2022/04/28 01:36:00;;;;;;;6.57;3.93;;;9.20;99.90;;;;;;5072716;28;20183;-83
2022/04/28 01:38:25;;;;;;;6.07;4.03;;;9.20;99.90;;;;;;5074088;28;20417;-84
2022/04/28 01:40:51;;;;;;;6.20;4.43;;;9.20;99.90;;;;;;5072790;28;20340;-82
2022/04/28 01:43:17;;;;;;;6.63;4.80;;;9.10;99.90;;;;;;5072878;28;20178;-84
2022/04/28 01:45:42;;;;;;;4.90;3.83;;;9.10;99.90;;;;;;5072501;28;20183;-83
2022/04/28 01:48:09;;;;;;;6.00;4.10;;;9.10;99.90;;;;;;5072238;28;20256;-83
2022/04/28 01:50:35;;;;;;;7.93;4.17;;;9.10;99.90;;;;;;5074439;28;20621;-83
2022/04/28 01:55:44;;;;;;;7.63;4.70;;;9.00;99.90;;;;;;5074629;28;20883;-83
2022/04/28 01:58:10;;;;;;;6.43;4.43;;;9.00;99.90;;;;;;5072774;28;20421;-83
2022/04/28 02:00:35;;;;;;;8.17;4.53;;;9.00;99.90;;;;;;5072543;28;20195;-82
2022/04/28 02:03:01;;;;;;;8.00;4.60;;;8.90;99.90;;;;;;5072546;28;20277;-84
2022/04/28 02:05:27;;;;;;;9.30;5.50;;;8.90;99.90;;;;;;5074137;28;20596;-83
2022/04/28 02:07:52;;;;;;;7.10;4.83;;;8.90;99.90;;;;;;5074021;28;20183;-83
2022/04/28 02:10:18;;;;;;;8.57;4.90;;;8.80;99.90;;;;;;5071070;28;20221;-83
2022/04/28 02:12:44;;;;;;;10.67;4.93;;;8.80;99.90;;;;;;5071085;28;20260;-82
2022/04/28 02:15:10;;;;;;;7.93;4.63;;;8.70;99.90;;;;;;5071122;28;20278;-83
2022/04/28 02:17:37;;;;;;;7.97;4.80;;;8.70;99.90;;;;;;5072364;28;20201;-83
2022/04/28 02:20:11;;;;;;;7.73;4.60;;;8.70;99.90;;;;;;5072544;28;20439;-82
2022/04/28 02:22:37;;;;;;;6.83;4.13;;;8.70;99.90;;;;;;5075228;28;20429;-83
2022/04/28 02:25:03;;;;;;;7.43;4.90;;;8.70;99.90;;;;;;5076420;28;20897;-82
2022/04/28 02:27:29;;;;;;;8.63;4.93;;;8.60;99.90;;;;;;5075148;28;20512;-83
2022/04/28 02:29:55;;;;;;;8.47;5.40;;;8.60;99.90;;;;;;5074825;28;20468;-82
2022/04/28 02:32:21;;;;;;;10.23;5.00;;;8.60;99.90;;;;;;5074897;28;20209;-82
2022/04/28 02:34:46;;;;;;;11.70;5.17;;;8.50;99.90;;;;;;5076032;28;20179;-84
2022/04/28 02:37:13;;;;;;;9.83;5.03;;;8.60;99.90;;;;;;5074687;28;20222;-83
2022/04/28 02:39:39;;;;;;;5.40;3.97;;;8.50;99.90;;;;;;5074589;28;20182;-83
2022/04/28 02:42:05;;;;;;;7.87;4.90;;;8.50;99.90;;;;;;5074916;28;20420;-84
2022/04/28 02:44:31;;;;;;;7.30;4.57;;;8.50;99.90;;;;;;5076035;28;20420;-83
2022/04/28 02:46:56;;;;;;;6.20;4.47;;;8.50;99.90;;;;;;5074526;28;20448;-83
2022/04/28 02:49:22;;;;;;;7.93;5.17;;;8.50;99.90;;;;;;5074669;28;20214;-82
2022/04/28 02:51:47;;;;;;;7.50;5.23;;;8.50;99.90;;;;;;5074025;28;20247;-83
2022/04/28 02:54:13;;;;;;;8.23;4.63;;;8.40;99.90;;;;;;5074592;28;20185;-82
2022/04/28 02:56:39;;;;;;;8.73;5.57;;;8.40;99.90;;;;;;5075517;28;20178;-82
2022/04/28 02:59:05;;;;;;;7.87;5.43;;;8.50;99.90;;;;;;5074698;28;20222;-83
2022/04/28 03:01:30;;;;;;;8.73;4.87;;;8.50;99.90;;;;;;5074213;28;20480;-83
2022/04/28 03:03:56;;;;;;;8.57;5.47;;;8.50;99.90;;;;;;5074503;28;20616;-83
2022/04/28 03:11:52;;;;;;;9.37;4.63;;;8.00;99.90;;;;;;5075697;28;20502;-83
2022/04/28 03:14:18;;;;;;;12.10;5.10;;;8.00;99.90;;;;;;5074482;28;20439;-82
2022/04/28 03:16:44;;;;;;;8.70;4.60;;;7.90;99.90;;;;;;5075230;28;20458;-83
2022/04/28 03:19:09;;;;;;;7.77;5.50;;;7.90;99.90;;;;;;5074354;28;20410;-83
2022/04/28 03:21:36;;;;;;;9.60;5.60;;;7.90;99.90;;;;;;5073829;28;20195;-82
2022/04/28 03:24:01;;;;;;;7.77;5.07;;;7.90;99.90;;;;;;5073956;28;20174;-83
2022/04/28 03:26:28;;;;;;;10.70;5.23;;;8.10;99.90;;;;;;5073880;28;20481;-83
2022/04/28 03:28:54;;;;;;;8.23;5.17;;;8.10;99.90;;;;;;5073752;28;20676;-82
2022/04/28 03:31:20;;;;;;;9.30;6.00;;;8.10;99.90;;;;;;5073345;28;20436;-83
2022/04/28 03:33:46;;;;;;;9.60;5.80;;;8.10;99.90;;;;;;5072956;28;20823;-82
2022/04/28 03:38:55;;;;;;;8.40;5.10;;;8.00;99.90;;;;;;5075375;28;20184;-83
2022/04/28 03:41:21;;;;;;;9.17;4.83;;;8.00;99.90;;;;;;5073198;28;20536;-82
2022/04/28 03:43:46;;;;;;;8.00;5.17;;;8.00;99.90;;;;;;5073485;28;20232;-82
2022/04/28 03:46:15;;;;;;;6.60;4.60;;;7.90;99.90;;;;;;5097667;22;20226;-78
2022/04/28 03:48:41;;;;;;;8.33;5.60;;;8.00;99.90;;;;;;5058625;28;20187;-79
2022/04/28 03:51:07;;;;;;;10.30;6.00;;;7.90;99.90;;;;;;5058392;28;20468;-78
2022/04/28 03:53:33;;;;;;;8.10;5.50;;;7.90;99.90;;;;;;5058648;28;20473;-79
2022/04/28 03:55:59;;;;;;;9.87;5.83;;;7.80;99.90;;;;;;5058531;28;20441;-78
2022/04/28 03:58:25;;;;;;;10.60;6.20;;;7.80;99.90;;;;;;5058834;28;20204;-78
2022/04/28 04:00:52;;;;;;;8.90;5.70;;;7.80;99.90;;;;;;5057880;28;20479;-79
2022/04/28 04:03:20;;;;;;;11.27;7.20;;;7.80;99.90;;;;;;5057439;28;20426;-78
2022/04/28 04:05:47;;;;;;;10.50;6.23;;;7.70;99.90;;;;;;5058134;28;20449;-78
2022/04/28 04:08:13;;;;;;;10.47;6.60;;;7.70;99.90;;;;;;5058746;28;20428;-79
2022/04/28 04:10:39;;;;;;;11.20;6.27;;;7.70;99.90;;;;;;5058709;28;20474;-79
2022/04/28 04:13:05;;;;;;;7.90;5.13;;;7.80;99.90;;;;;;5057551;28;21117;-79
2022/04/28 04:15:32;;;;;;;12.17;7.07;;;7.80;99.90;;;;;;5057898;28;20425;-79
2022/04/28 04:17:58;;;;;;;7.20;5.67;;;7.80;99.90;;;;;;5058004;28;20493;-79
2022/04/28 04:20:25;;;;;;;9.50;5.83;;;7.80;99.90;;;;;;5056962;28;20833;-78
2022/04/28 04:22:52;;;;;;;10.17;6.00;;;7.80;99.90;;;;;;5056948;28;20422;-79
2022/04/28 04:25:19;;;;;;;9.40;6.90;;;7.90;99.90;;;;;;5056632;28;20410;-78
2022/04/28 04:27:45;;;;;;;8.57;5.80;;;7.80;99.90;;;;;;5057824;28;20444;-79
2022/04/28 04:32:55;;;;;;;9.27;6.50;;;7.80;99.90;;;;;;5059250;28;20334;-79
2022/04/28 04:35:24;;;;;;;12.30;6.77;;;7.70;99.90;;;;;;5056755;28;20482;-78
2022/04/28 04:37:54;;;;;;;11.53;6.87;;;7.70;99.90;;;;;;5056456;28;20218;-79
2022/04/28 04:40:20;;;;;;;9.63;6.30;;;7.80;99.90;;;;;;5057002;28;20913;-79
2022/04/28 04:42:46;;;;;;;13.20;6.77;;;7.80;99.90;;;;;;5056148;28;20414;-78
2022/04/28 04:45:12;;;;;;;11.77;6.03;;;7.80;99.90;;;;;;5054824;28;20441;-78
2022/04/28 04:47:38;;;;;;;11.50;7.07;;;7.70;99.90;;;;;;5054712;28;20440;-78
2022/04/28 04:50:07;;;;;;;10.63;7.40;;;7.80;99.90;;;;;;5053774;28;20429;-79
2022/04/28 04:52:33;;;;;;;12.03;6.40;;;7.80;99.90;;;;;;5053491;28;20501;-78
2022/04/28 04:54:59;;;;;;;10.40;6.20;;;7.90;99.90;;;;;;5053653;28;20419;-78
2022/04/28 04:57:26;;;;;;;10.47;6.10;;;7.90;99.90;;;;;;5054249;28;20438;-78
2022/04/28 04:59:52;;;;;;;9.53;6.13;;;8.00;99.90;;;;;;5053349;28;20444;-78
2022/04/28 05:02:17;;;;;;;9.50;6.00;;;8.20;99.90;;;;;;5053177;28;20425;-78
2022/04/28 05:04:43;;;;;;;13.00;6.67;;;8.20;99.90;;;;;;5053019;28;20186;-78
2022/04/28 05:07:09;;;;;;;11.47;6.67;;;8.30;99.90;;;;;;5053111;28;20306;-78
2022/04/28 05:09:37;;;;;;;9.60;5.50;;;8.30;99.90;;;;;;5052688;28;20180;-78
2022/04/28 05:12:06;;;;;;;9.43;6.43;;;8.30;99.90;;;;;;5052818;28;21011;-78
2022/04/28 05:14:33;;;;;;;10.43;6.50;;;8.40;99.90;;;;;;5052849;28;20428;-78
2022/04/28 05:16:59;;;;;;;10.27;6.37;;;8.40;99.90;;;;;;5052715;28;20438;-78
2022/04/28 05:19:26;;;;;;;11.07;6.57;;;8.40;99.90;;;;;;5053031;28;20771;-78
2022/04/28 05:21:54;;;;;;;12.20;7.37;;;8.50;99.90;;;;;;5053004;28;20441;-79
2022/04/28 05:24:21;;;;;;;8.90;6.53;;;8.50;99.90;;;;;;5052912;28;20414;-78
2022/04/28 05:26:47;;;;;;;13.17;7.07;;;8.50;99.90;;;;;;5052926;28;20484;-79
2022/04/28 05:29:13;;;;;;;9.83;6.60;;;8.50;99.90;;;;;;5053174;28;20833;-79
2022/04/28 05:31:38;;;;;;;11.30;6.60;;;8.60;99.90;;;;;;5052760;28;20430;-79
2022/04/28 05:34:04;;;;;;;10.93;7.27;;;8.70;99.90;;;;;;5053151;28;20179;-79
2022/04/28 05:36:31;;;;;;;9.60;6.17;;;8.70;99.90;;;;;;5053059;28;20196;-78
2022/04/28 05:38:57;;;;;;;11.73;8.20;;;8.80;99.90;;;;;;5052988;28;20417;-78
2022/04/28 05:41:24;;;;;;;14.00;8.50;;;8.80;99.90;;;;;;5053369;28;20411;-79
2022/04/28 05:46:35;;;;;;;13.10;6.97;;;9.00;99.90;;;;;;5060068;28;20464;-80
2022/04/28 05:49:01;;;;;;;11.63;7.50;;;9.10;99.90;;;;;;5061927;28;20414;-80
2022/04/28 05:51:27;;;;;;;13.50;6.97;;;9.20;99.90;;;;;;5061351;28;20179;-80
2022/04/28 05:53:52;;;;;;;10.27;7.13;;;9.30;99.90;;;;;;5060799;28;21011;-80
2022/04/28 05:56:18;;;;;;;10.93;7.93;;;9.50;99.90;;;;;;5060105;28;20545;-79
2022/04/28 05:58:44;;;;;;;13.03;7.90;;;9.50;99.90;;;;;;5061277;28;20209;-79
2022/04/28 06:01:10;;;;;;;11.90;7.97;;;9.70;99.90;;;;;;5060574;28;20172;-80
2022/04/28 06:03:35;;;;;;;13.70;8.40;;;9.60;99.90;;;;;;5060308;28;20184;-79
2022/04/28 06:06:01;;;;;;;13.00;7.53;;;9.40;99.90;;;;;;5058991;28;20646;-79
2022/04/28 06:08:27;;;;;;;12.57;7.27;;;9.60;99.90;;;;;;5058493;28;20215;-79
2022/04/28 06:10:53;;;;;;;11.43;8.57;;;9.70;99.90;;;;;;5058489;28;20179;-79
2022/04/28 06:13:19;;;;;;;14.03;7.93;;;9.80;99.90;;;;;;5058142;28;20215;-79
2022/04/28 06:15:44;;;;;;;13.13;7.90;;;10.00;99.90;;;;;;5058185;28;20218;-79
2022/04/28 06:18:10;;;;;;;12.90;8.23;;;10.00;99.90;;;;;;5057000;28;20175;-79
2022/04/28 06:20:36;;;;;;;12.83;7.83;;;10.10;99.90;;;;;;5057759;28;20176;-79
2022/04/28 06:23:02;;;;;;;16.60;8.43;;;10.30;99.90;;;;;;5057179;28;20192;-80
2022/04/28 06:25:28;;;;;;;13.83;8.60;;;10.30;99.90;;;;;;5054024;28;20187;-80
2022/04/28 06:27:53;;;;;;;13.43;8.30;;;10.40;99.90;;;;;;5054853;28;20190;-80
2022/04/28 06:30:19;;;;;;;9.80;7.77;;;10.50;99.90;;;;;;5055527;28;20416;-80
2022/04/28 06:32:49;;;;;;;13.23;8.67;;;10.60;99.90;;;;;;5055263;28;20211;-79
2022/04/28 06:35:15;;;;;;;12.13;8.37;;;10.60;99.90;;;;;;5057972;28;20513;-79
2022/04/28 06:37:41;;;;;;;13.70;8.30;;;10.70;99.90;;;;;;5055634;28;20480;-79
2022/04/28 06:40:10;;;;;;;13.57;9.43;;;10.80;99.90;;;;;;5055964;28;20486;-79
2022/04/28 06:42:36;;;;;;;14.47;9.20;;;11.00;99.90;;;;;;5054828;28;20194;-80
2022/04/28 06:45:02;;;;;;;13.17;8.43;;;11.10;99.90;;;;;;5053686;28;20441;-78
2022/04/28 06:47:27;;;;;;;12.70;8.67;;;11.30;99.90;;;;;;5053604;28;20197;-78
2022/04/28 06:49:53;;;;;;;10.87;7.70;;;11.30;99.90;;;;;;5053056;28;20415;-79
2022/04/28 06:52:19;;;;;;;12.20;8.03;;;11.50;99.90;;;;;;5053310;28;20215;-78
2022/04/28 06:54:45;;;;;;;13.37;8.93;;;11.70;99.90;;;;;;5054404;28;20176;-77
2022/04/28 06:57:10;;;;;;;13.27;9.00;;;11.80;99.90;;;;;;5052964;28;20203;-77
2022/04/28 06:59:36;;;;;;;11.67;8.47;;;11.80;99.90;;;;;;5052955;28;20209;-76
2022/04/28 07:02:02;;;;;;;14.77;9.17;;;12.00;99.90;;;;;;5053114;28;20661;-78
2022/04/28 07:04:28;;;;;;;14.83;10.00;;;12.10;99.90;;;;;;5053010;28;20179;-78
2022/04/28 07:06:54;;;;;;;14.90;9.60;;;12.10;99.90;;;;;;5053391;28;20445;-77
2022/04/28 07:09:20;;;;;;;15.23;9.37;;;12.20;99.90;;;;;;5056523;28;20940;-77
2022/04/28 07:11:46;;;;;;;12.77;9.50;;;12.40;99.90;;;;;;5056343;28;20300;-78
2022/04/28 07:14:13;;;;;;;15.23;9.83;;;12.40;99.90;;;;;;5056660;28;20183;-77
2022/04/28 07:16:38;;;;;;;12.47;8.80;;;12.50;99.90;;;;;;5056819;28;20438;-77
2022/04/28 07:19:06;;;;;;;13.80;8.57;;;12.70;99.90;;;;;;5057037;28;20517;-77
2022/04/28 07:21:32;;;;;;;14.00;9.30;;;12.70;99.90;;;;;;5056661;28;20206;-78
2022/04/28 07:23:58;;;;;;;14.77;9.27;;;12.80;99.90;;;;;;5056927;28;20913;-77
2022/04/28 07:26:23;;;;;;;14.87;9.70;;;13.00;99.90;;;;;;5056241;28;20243;-78
2022/04/28 07:28:49;;;;;;;14.93;9.93;;;13.10;99.90;;;;;;5055324;28;20546;-78
2022/04/28 07:31:15;;;;;;;14.43;10.17;;;13.00;99.90;;;;;;5054900;28;20172;-78
2022/04/28 07:33:41;;;;;;;15.77;10.17;;;13.00;99.90;;;;;;5054799;28;20530;-78
2022/04/28 07:36:07;;;;;;;14.70;8.87;;;13.10;99.90;;;;;;5055539;28;20200;-77
2022/04/28 07:38:33;;;;;;;14.00;10.03;;;13.20;99.90;;;;;;5054671;28;20232;-78
2022/04/28 07:41:01;;;;;;;13.60;9.40;;;13.40;99.90;;;;;;5055721;28;20182;-78
2022/04/28 07:43:26;;;;;;;16.87;10.50;;;13.50;99.90;;;;;;5055218;28;20418;-78
2022/04/28 07:45:52;;;;;;;16.53;9.20;;;13.70;99.90;;;;;;5055062;28;20461;-77
2022/04/28 07:48:19;;;;;;;14.30;9.70;;;13.80;99.90;;;;;;5055369;28;20206;-77
2022/04/28 07:50:46;;;;;;;12.23;9.00;;;13.90;99.90;;;;;;5055983;28;20655;-76
2022/04/28 07:53:16;;;;;;;15.60;9.93;;;14.00;99.90;;;;;;5054607;28;20461;-77
2022/04/28 07:55:41;;;;;;;13.77;9.97;;;14.20;99.90;;;;;;5052920;28;20462;-78
2022/04/28 07:58:07;;;;;;;15.73;10.33;;;14.30;99.90;;;;;;5055405;28;20415;-77
2022/04/28 08:00:33;;;;;;;15.10;9.53;;;14.30;99.90;;;;;;5053579;28;20195;-78
2022/04/28 08:02:59;;;;;;;14.93;11.00;;;14.40;99.90;;;;;;5055325;28;20422;-77
2022/04/28 08:05:25;;;;;;;17.00;10.13;;;14.50;99.90;;;;;;5054576;28;20183;-77
2022/04/28 08:07:51;;;;;;;15.10;10.97;;;14.60;99.90;;;;;;5055395;28;20438;-77
2022/04/28 08:10:17;;;;;;;16.77;11.20;;;14.60;99.90;;;;;;5054837;28;20434;-77
2022/04/28 08:12:43;;;;;;;14.50;10.20;;;15.00;99.90;;;;;;5055057;28;20211;-77
2022/04/28 08:15:10;;;;;;;18.13;11.00;;;15.70;99.90;;;;;;5055650;28;20317;-78
2022/04/28 08:17:36;;;;;;;15.73;10.10;;;17.00;99.90;;;;;;5055986;28;20206;-77
2022/04/28 08:20:02;;;;;;;16.90;10.30;;;18.10;99.90;;;;;;5055424;28;20441;-78
2022/04/28 08:22:28;;;;;;;15.77;10.33;;;18.90;99.90;;;;;;5056932;28;20318;-77
2022/04/28 08:24:54;;;;;;;17.57;11.07;;;20.40;99.90;;;;;;5058091;28;20856;-78
2022/04/28 08:27:24;;;;;;;13.40;9.40;;;21.70;99.90;;;;;;5057873;28;20234;-78
2022/04/28 08:29:51;;;;;;;13.20;10.40;;;22.70;99.90;;;;;;5057865;28;20410;-78
2022/04/28 08:32:16;;;;;;;12.70;10.20;;;22.70;92.80;;;;;;5057100;28;20468;-78
2022/04/28 08:34:42;;;;;;;13.60;9.90;;;23.30;92.30;;;;;;5058327;28;20513;-78
2022/04/28 08:37:08;;;;;;;16.03;10.90;;;24.00;85.80;;;;;;5057945;28;20259;-78
2022/04/28 08:39:34;;;;;;;15.43;9.90;;;25.00;79.50;;;;;;5051946;28;20533;-79
2022/04/28 08:42:00;;;;;;;13.13;10.50;;;25.80;76.50;;;;;;5037511;28;20275;-78
2022/04/28 08:44:27;;;;;;;11.60;9.10;;;26.60;73.20;;;;;;5054172;28;21486;-79
2022/04/28 08:46:57;;;;;;;11.13;9.17;;;27.50;68.50;;;;;;5054363;28;20481;-79
2022/04/28 08:49:30;;;;;;;12.77;9.00;;;28.30;59.80;;;;;;5054414;28;20418;-79
2022/04/28 08:51:58;;;;;;;13.40;10.30;;;29.10;56.00;;;;;;5054530;28;20430;-79
2022/04/28 08:54:26;;;;;;;12.10;9.60;;;29.70;52.90;;;;;;5055333;28;20433;-79
2022/04/28 08:56:53;;;;;;;12.43;10.40;;;30.30;49.50;;;;;;5054944;28;20450;-79
2022/04/28 08:59:23;;;;;;;11.83;9.23;;;30.80;47.20;;;;;;5055777;28;20422;-79
2022/04/28 09:01:50;;;;;;;14.70;10.10;;;30.70;44.90;;;;;;5055462;28;20421;-79
2022/04/28 09:04:17;;;;;;;11.93;9.70;;;31.00;44.90;;;;;;5054700;28;20471;-79
2022/04/28 09:06:44;;;;;;;10.07;8.30;;;31.60;43.20;;;;;;5055214;28;20457;-78
2022/04/28 09:09:13;;;;;;;11.50;7.97;;;31.60;41.30;;;;;;5054587;28;20423;-79
2022/04/28 09:11:40;;;;;;;10.20;8.43;;;32.10;41.90;;;;;;5055017;28;20496;-79
2022/04/28 09:14:25;;;;;;;8.70;7.80;;;32.80;40.90;;;;;;5055617;28;20959;-79
2022/04/28 09:16:59;;;;;;;11.93;9.43;;;33.40;40.50;;;;;;5060043;28;20472;-79
2022/04/28 09:19:32;;;;;;;10.80;8.13;;;32.80;36.10;;;;;;5055857;28;20424;-80
2022/04/28 09:22:00;;;;;;;11.73;7.53;;;32.90;36.00;;;;;;5055650;28;20458;-79
2022/04/28 09:24:28;;;;;;;11.23;8.20;;;33.00;38.20;;;;;;5055990;28;20859;-79
2022/04/28 09:26:55;;;;;;;9.30;8.40;;;33.30;35.10;;;;;;5055520;28;20534;-79
2022/04/28 09:29:22;;;;;;;11.03;9.20;;;33.50;33.80;;;;;;5056168;28;20415;-79
2022/04/28 09:31:50;;;;;;;11.40;8.90;;;32.80;34.00;;;;;;5054642;28;20443;-80
2022/04/28 09:34:21;;;;;;;12.47;8.90;;;33.30;34.10;;;;;;5055352;28;20406;-79
2022/04/28 09:36:48;;;;;;;14.20;9.90;;;33.30;34.40;;;;;;5054974;28;20449;-79
2022/04/28 09:42:31;;;;;;;8.83;7.20;;;34.40;33.50;;;;;;5056315;28;20499;-79
2022/04/28 09:44:59;;;;;;;11.17;8.80;;;35.20;33.70;;;;;;5055686;28;20418;-79
2022/04/28 09:47:27;;;;;;;9.43;7.23;;;33.80;31.10;;;;;;5054929;28;20465;-79
2022/04/28 09:49:55;;;;;;;8.70;6.67;;;34.50;31.40;;;;;;5054769;28;20859;-79
2022/04/28 09:52:24;;;;;;;8.77;7.70;;;33.90;30.20;;;;;;5054114;28;21200;-79
2022/04/28 09:54:51;;;;;;;9.30;7.20;;;33.80;29.30;;;;;;5043126;28;20964;-79
2022/04/28 09:57:20;;;;;;;13.43;8.33;;;35.50;31.30;;;;;;5035579;28;20454;-84
2022/04/28 09:59:47;;;;;;;7.73;6.93;;;37.10;30.10;;;;;;5047347;28;20457;-78
2022/04/28 10:02:19;;;;;;;9.50;8.03;;;36.50;28.90;;;;;;5051818;28;20802;-76
2022/04/28 10:04:46;;;;;;;9.83;7.80;;;37.40;28.90;;;;;;5049824;28;20422;-77
2022/04/28 10:07:15;;;;;;;8.63;7.73;;;36.50;28.00;;;;;;5050273;28;20434;-76
2022/04/28 10:10:01;;;;;;;8.90;6.73;;;36.50;28.80;;;;;;5050857;28;20414;-77
2022/04/28 10:12:28;;;;;;;8.80;7.77;;;36.30;28.00;;;;;;5050913;28;20940;-77
2022/04/28 10:14:54;;;;;;;10.60;8.33;;;36.30;28.00;;;;;;5082512;22;20498;-85
2022/04/28 10:17:32;;;;;;;9.10;7.80;;;36.30;27.80;;;;;;5051765;28;20414;-86
2022/04/28 10:20:17;;;;;;;9.10;8.10;;;36.90;28.50;;;;;;5051978;28;20881;-84
2022/04/28 10:22:44;;;;;;;9.63;7.50;;;37.20;27.30;;;;;;5050653;28;20493;-85
2022/04/28 10:32:22;;;;;;;9.70;8.10;;;38.50;28.20;;;;;;5051809;28;20393;-84
2022/04/28 10:34:15;;;;;;;11.93;9.43;;;38.50;26.40;;;;;;5051490;28;20441;-84
2022/04/28 10:36:54;;;;;;;13.00;9.17;;;39.20;27.10;;;;;;5051377;28;20438;-84
2022/04/28 10:39:39;;;;;;;10.73;8.43;;;38.70;27.10;;;;;;5051404;28;20406;-84
2022/04/28 10:42:20;;;;;;;10.10;8.60;;;38.20;26.80;;;;;;5051571;28;20579;-84
2022/04/28 10:45:04;;;;;;;10.03;7.97;;;36.50;26.70;;;;;;5055378;28;20781;-83
2022/04/28 10:47:36;;;;;;;11.57;8.93;;;35.60;27.30;;;;;;5055486;28;20418;-83
2022/04/28 10:50:19;;;;;;;9.80;8.77;;;35.10;27.10;;;;;;5053656;28;20490;-84
2022/04/28 10:52:59;;;;;;;9.70;8.43;;;34.20;27.80;;;;;;5054054;28;20932;-84
2022/04/28 10:55:33;;;;;;;10.20;8.00;;;33.70;27.70;;;;;;5053639;28;20438;-84
2022/04/28 10:58:21;;;;;;;10.43;8.20;;;32.00;27.60;;;;;;5054098;28;20453;-83
2022/04/28 11:00:57;;;;;;;11.20;8.83;;;30.30;28.60;;;;;;5054910;28;20406;-84
2022/04/28 11:03:53;;;;;;;12.53;8.63;;;29.40;29.70;;;;;;5053900;28;20472;-84
2022/04/28 11:06:21;;;;;;;13.70;8.60;;;30.00;31.10;;;;;;5051264;28;20936;-83
2022/04/28 11:08:49;;;;;;;9.50;7.60;;;28.90;31.00;;;;;;5055187;28;20770;-83
2022/04/28 11:11:15;;;;;;;11.10;8.40;;;29.00;31.80;;;;;;5053547;28;20410;-83
2022/04/28 11:13:49;;;;;;;9.83;7.63;;;28.20;30.90;;;;;;5054987;28;20937;-83
2022/04/28 11:16:16;;;;;;;13.37;8.23;;;28.50;31.40;;;;;;5055151;28;20512;-83
2022/04/28 11:18:43;;;;;;;10.40;7.90;;;28.40;32.50;;;;;;5054863;28;20418;-84
2022/04/28 11:21:09;;;;;;;11.03;7.60;;;28.70;32.50;;;;;;5054703;28;20452;-83
2022/04/28 11:23:37;;;;;;;10.50;7.97;;;30.80;33.10;;;;;;5053458;28;20478;-83
2022/04/28 11:26:03;;;;;;;9.43;7.80;;;31.70;30.40;;;;;;5054574;28;20897;-84
2022/04/28 11:28:30;;;;;;;11.80;8.37;;;31.90;30.30;;;;;;5054839;28;20453;-83
2022/04/28 11:30:58;;;;;;;8.47;7.03;;;32.60;29.70;;;;;;5053914;28;20418;-84
2022/04/28 11:33:23;;;;;;;9.90;8.47;;;33.50;30.00;;;;;;5055538;28;20426;-84
2022/04/28 11:35:49;;;;;;;11.77;8.23;;;34.40;29.70;;;;;;5055661;28;20801;-84
2022/04/28 11:38:29;;;;;;;11.00;7.60;;;33.90;28.40;;;;;;5053774;28;20589;-84
2022/04/28 11:41:03;;;;;;;9.90;7.83;;;34.10;29.00;;;;;;5053125;28;20215;-84
2022/04/28 11:43:34;;;;;;;10.83;7.50;;;32.50;28.80;;;;;;5053269;28;20465;-83
2022/04/28 11:46:01;;;;;;;9.33;8.07;;;32.60;30.00;;;;;;5056189;28;20410;-84
2022/04/28 11:48:28;;;;;;;11.60;8.73;;;33.20;29.40;;;;;;5056411;28;20457;-84
2022/04/28 11:50:54;;;;;;;10.57;8.03;;;32.60;29.20;;;;;;5054692;28;20423;-83
2022/04/28 11:53:20;;;;;;;9.00;7.40;;;31.40;30.20;;;;;;5055666;28;20422;-84
2022/04/28 11:55:48;;;;;;;9.27;7.57;;;30.40;30.90;;;;;;5054394;28;20410;-84
2022/04/28 11:58:15;;;;;;;9.57;7.50;;;29.50;31.30;;;;;;5054149;28;20184;-84
2022/04/28 12:00:46;;;;;;;11.47;8.53;;;29.70;32.30;;;;;;5054773;28;20422;-84
2022/04/28 12:03:25;;;;;;;10.67;7.97;;;31.20;31.70;;;;;;5053819;28;20458;-84
2022/04/28 12:05:52;;;;;;;9.50;7.60;;;32.50;31.40;;;;;;5073217;28;20481;-83
2022/04/28 12:08:21;;;;;;;9.87;7.97;;;33.40;30.50;;;;;;5073965;28;20447;-83
2022/04/28 12:16:18;;;;;;;10.10;8.30;;;33.60;28.80;;;;;;5073993;28;20413;-84
2022/04/28 12:21:36;;;;;;;10.47;8.10;;;31.60;29.70;;;;;;5073983;28;20801;-84
2022/04/28 12:24:14;;;;;;;12.07;7.97;;;31.90;30.00;;;;;;5073956;28;20482;-84
2022/04/28 12:26:45;;;;;;;10.37;7.73;;;32.90;29.70;;;;;;5073595;28;20457;-85
2022/04/28 12:29:12;;;;;;;9.90;8.20;;;36.30;28.30;;;;;;5072302;28;20796;-84
2022/04/28 12:31:39;;;;;;;10.40;8.17;;;36.70;27.90;;;;;;5078076;28;20413;-85
2022/04/28 12:34:22;;;;;;;11.20;8.13;;;35.70;27.10;;;;;;5074629;28;20476;-84
2022/04/28 12:36:55;;;;;;;11.97;8.00;;;35.30;26.80;;;;;;5072594;28;20826;-85
2022/04/28 12:39:21;;;;;;;8.73;7.83;;;35.10;28.90;;;;;;5072532;28;20485;-85
2022/04/28 12:41:51;;;;;;;10.77;7.73;;;35.20;29.60;;;;;;5072372;28;20863;-84
2022/04/28 12:44:17;;;;;;;9.40;7.83;;;35.40;28.50;;;;;;5073810;28;20681;-85
2022/04/28 12:46:45;;;;;;;10.20;8.80;;;34.60;28.30;;;;;;5074140;28;20927;-85
2022/04/28 12:49:12;;;;;;;9.90;8.10;;;33.10;27.70;;;;;;5073190;28;20442;-84
2022/04/28 12:51:55;;;;;;;9.07;8.10;;;32.80;28.60;;;;;;5074496;28;20425;-84
2022/04/28 12:54:23;;;;;;;10.70;8.37;;;31.20;28.80;;;;;;5074962;28;20445;-85
2022/04/28 12:57:00;;;;;;;11.40;9.60;;;30.40;31.10;;;;;;5077555;28;20497;-84
2022/04/28 12:59:30;;;;;;;11.80;8.83;;;29.40;30.50;;;;;;5092012;28;20429;-84
2022/04/28 13:01:56;;;;;;;10.10;7.43;;;30.00;31.40;;;;;;5075180;28;20409;-84
2022/04/28 13:04:23;;;;;;;10.67;7.70;;;30.60;32.20;;;;;;5076070;28;20931;-84
2022/04/28 13:06:50;;;;;;;12.37;8.60;;;30.30;31.00;;;;;;5073351;28;20183;-85
2022/04/28 13:09:16;;;;;;;13.60;8.13;;;29.80;31.20;;;;;;5077998;28;20496;-84
2022/04/28 13:11:44;;;;;;;11.40;8.30;;;29.70;30.90;;;;;;5076963;28;20889;-85
2022/04/28 13:14:12;;;;;;;11.67;8.30;;;29.30;31.60;;;;;;5076529;28;20448;-84
2022/04/28 13:16:39;;;;;;;10.07;7.60;;;29.00;33.30;;;;;;5074962;28;20463;-84
2022/04/28 13:19:05;;;;;;;10.20;6.90;;;29.30;33.30;;;;;;5075601;28;20429;-84
2022/04/28 13:21:32;;;;;;;10.50;7.70;;;29.80;32.50;;;;;;5075145;28;20445;-83
2022/04/28 13:23:58;;;;;;;10.97;7.23;;;30.20;32.40;;;;;;5076900;28;20485;-85